Time;durP1;ratioP1;P1;durP2;ratioP2;P2;SDS_P1;SDS_P2;PMS_P1;PMS_P2;Temp;Humidity;BMP_temperature;BMP_pressure;BME280_temperature;BME280_humidity;BME280_pressure;Samples;Min_cycle;Max_cycle;Signal;HPM_P1;HPM_P2
2022/07/25 00:02:18;;;;;;;;;22.00;21.00;;;;;28.20;41.69;100526.59;146619;628;46918;-70
2022/07/25 00:05:11;;;;;;;;;21.25;19.00;;;;;28.33;42.48;100527.16;146600;571;46021;-70
2022/07/25 00:08:03;;;;;;;;;22.75;18.50;;;;;28.45;43.87;100531.34;146600;749;46016;-70
2022/07/25 00:10:55;;;;;;;;;19.00;19.00;;;;;28.52;45.66;100532.94;146603;650;46021;-70
2022/07/25 00:13:47;;;;;;;;;20.75;19.25;;;;;28.59;48.09;100534.50;146599;649;46016;-70
2022/07/25 00:16:39;;;;;;;;;21.75;20.50;;;;;28.60;48.32;100536.28;146602;595;46020;-72
2022/07/25 00:19:32;;;;;;;;;23.50;21.50;;;;;28.59;47.65;100553.19;146601;593;46014;-71
2022/07/25 00:22:24;;;;;;;;;23.50;21.50;;;;;28.59;46.22;100561.19;146602;570;46010;-71
2022/07/25 00:25:16;;;;;;;;;21.00;20.25;;;;;28.58;48.25;100558.59;146600;694;46016;-70
2022/07/25 00:28:09;;;;;;;;;19.50;18.50;;;;;28.56;47.23;100555.94;146600;593;46010;-70
2022/07/25 00:31:07;;;;;;;;;23.50;22.00;;;;;28.53;48.91;100553.34;146596;664;46917;-70
2022/07/25 00:34:03;;;;;;;;;19.00;18.50;;;;;28.51;49.41;100552.53;146602;614;46012;-70
2022/07/25 00:37:15;;;;;;;;;22.00;20.25;;;;;28.52;50.46;100557.81;146598;591;46012;-71
2022/07/25 00:40:25;;;;;;;;;20.00;20.00;;;;;28.53;49.05;100554.22;146604;577;46021;-69
2022/07/25 00:43:20;;;;;;;;;21.50;21.25;;;;;28.54;54.44;100563.13;146597;584;46918;-69
2022/07/25 00:46:44;;;;;;;;;21.75;20.00;;;;;28.47;54.34;100551.69;146603;591;46020;-68
2022/07/25 00:49:40;;;;;;;;;26.00;24.00;;;;;28.40;57.52;100558.13;146597;583;47014;-69
2022/07/25 00:52:35;;;;;;;;;25.50;23.50;;;;;28.35;59.16;100560.00;146600;564;46010;-70
2022/07/25 00:55:29;;;;;;;;;23.75;22.50;;;;;28.25;59.42;100556.66;146599;677;46013;-69
2022/07/25 00:58:35;;;;;;;;;18.00;18.00;;;;;28.18;57.02;100568.41;146602;583;46010;-70
2022/07/25 01:01:50;;;;;;;;;;;;;;;;;;;;;
2022/07/25 01:04:46;;;;;;;;;20.50;19.00;;;;;28.12;56.04;100559.69;146610;564;47023;-68
2022/07/25 01:07:40;;;;;;;;;21.50;21.25;;;;;28.17;56.11;100549.78;146605;656;46014;-71
2022/07/25 01:10:34;;;;;;;;;20.75;18.50;;;;;28.19;55.18;100555.94;146610;709;46011;-70
2022/07/25 01:13:29;;;;;;;;;26.00;22.25;;;;;28.18;55.31;100555.06;146607;607;46016;-70
2022/07/25 01:17:04;;;;;;;;;;;;;;;;;;;;;
2022/07/25 01:20:58;;;;;;;;;24.75;20.50;;;;;27.10;51.98;100366.63;146607;597;47014;-70
2022/07/25 01:24:16;;;;;;;;;22.50;21.50;;;;;28.14;54.96;100547.19;146604;602;46916;-72
2022/07/25 01:27:08;;;;;;;;;22.50;20.50;;;;;28.15;54.81;100548.94;146604;599;46016;-70
2022/07/25 01:30:01;;;;;;;;;25.00;22.25;;;;;28.17;54.95;100549.78;146612;589;46010;-69
2022/07/25 01:32:54;;;;;;;;;22.25;22.00;;;;;28.19;55.00;100553.28;146610;755;46013;-72
2022/07/25 01:35:47;;;;;;;;;23.50;20.25;;;;;28.20;54.44;100547.06;146610;704;46020;-70
2022/07/25 01:38:38;;;;;;;;;22.50;21.00;;;;;28.18;54.97;100546.19;146610;569;46012;-68
2022/07/25 01:41:31;;;;;;;;;20.00;19.00;;;;;28.18;54.55;100549.75;146610;616;46021;-69
2022/07/25 01:44:27;;;;;;;;;21.00;20.00;;;;;28.16;53.71;100545.34;146607;616;46016;-69
2022/07/25 01:47:20;;;;;;;;;21.25;19.75;;;;;28.15;54.03;100544.47;146611;631;46022;-70
2022/07/25 01:50:13;;;;;;;;;23.00;20.75;;;;;28.09;54.21;100556.16;146605;597;46016;-69
2022/07/25 01:53:05;;;;;;;;;16.75;16.75;;;;;27.96;53.04;100546.72;146609;610;46020;-69
2022/07/25 01:55:59;;;;;;;;;21.00;20.00;;;;;27.86;53.57;100555.84;146609;572;46017;-69
2022/07/25 01:58:51;;;;;;;;;22.00;20.25;;;;;27.79;52.51;100554.22;146612;563;46020;-70
2022/07/25 02:01:43;;;;;;;;;18.00;18.00;;;;;27.72;51.83;100555.22;146607;581;47014;-69
2022/07/25 02:04:36;;;;;;;;;23.25;19.25;;;;;27.67;52.98;100560.66;146605;645;46020;-69
2022/07/25 02:07:31;;;;;;;;;20.25;18.50;;;;;27.57;52.05;100560.00;146601;681;45584;-69
2022/07/25 02:10:28;;;;;;;;;22.25;19.00;;;;;27.48;51.44;100561.97;146602;582;46011;-69
2022/07/25 02:13:24;;;;;;;;;19.50;18.50;;;;;27.39;51.01;100558.59;146600;605;46016;-69
2022/07/25 02:16:22;;;;;;;;;20.25;19.50;;;;;27.35;51.91;100570.22;146602;607;46010;-69
2022/07/25 02:19:23;;;;;;;;;19.00;18.75;;;;;27.25;50.87;100570.41;146600;571;46016;-69
2022/07/25 02:22:28;;;;;;;;;17.00;16.75;;;;;27.14;50.13;100566.19;146601;602;46010;-69
2022/07/25 02:25:32;;;;;;;;;19.25;17.75;;;;;27.00;49.48;100565.53;146598;739;46016;-69
2022/07/25 02:28:36;;;;;;;;;19.25;18.50;;;;;26.84;49.51;100558.75;146602;573;46010;-69
2022/07/25 02:31:28;;;;;;;;;21.25;18.50;;;;;26.69;49.75;100566.09;146599;590;46916;-69
2022/07/25 02:34:21;;;;;;;;;18.00;17.25;;;;;26.58;49.51;100556.56;146603;626;46020;-69
2022/07/25 02:37:13;;;;;;;;;20.25;17.75;;;;;26.53;49.15;100555.75;146600;600;47014;-69
2022/07/25 02:44:11;;;;;;;;;19.50;18.00;;;;;26.58;48.64;100569.84;146599;670;46016;-69
2022/07/25 02:47:03;;;;;;;;;24.75;22.00;;;;;26.57;49.14;100568.94;146603;616;46011;-69
2022/07/25 02:50:01;;;;;;;;;20.00;17.50;;;;;26.53;49.35;100575.22;146601;613;46014;-70
2022/07/25 02:52:54;;;;;;;;;18.50;17.00;;;;;26.45;49.14;100577.13;146600;611;46020;-70
2022/07/25 02:55:47;;;;;;;;;19.50;17.75;;;;;26.39;49.38;100575.44;146598;630;46012;-69
2022/07/25 02:58:40;;;;;;;;;22.75;21.50;;;;;26.37;49.08;100582.56;146601;588;46010;-69
2022/07/25 03:01:32;;;;;;;;;21.00;20.50;;;;;26.32;49.85;100573.75;146599;624;46014;-69
2022/07/25 03:04:24;;;;;;;;;22.25;20.25;;;;;25.08;50.90;100369.31;146605;617;46020;-69
2022/07/25 03:07:17;;;;;;;;;21.25;21.25;;;;;26.28;51.77;100582.69;146596;615;47918;-69
2022/07/25 03:10:11;;;;;;;;;21.25;21.25;;;;;26.26;50.93;100593.37;146602;573;46021;-70
2022/07/25 03:13:03;;;;;;;;;24.00;22.75;;;;;26.30;51.23;100588.00;146600;601;46012;-69
2022/07/25 03:15:55;;;;;;;;;19.75;19.75;;;;;26.35;51.00;100594.09;146602;573;46010;-69
2022/07/25 03:18:48;;;;;;;;;19.50;18.50;;;;;26.36;50.85;100593.22;146598;580;46016;-70
2022/07/25 03:21:41;;;;;;;;;23.25;21.25;;;;;26.38;51.25;100608.22;146600;576;46010;-69
2022/07/25 03:24:33;;;;;;;;;18.50;15.75;;;;;26.41;51.71;100594.00;146597;572;46918;-69
2022/07/25 03:27:25;;;;;;;;;22.50;19.25;;;;;26.42;53.44;100596.66;146603;565;46020;-69
2022/07/25 03:30:17;;;;;;;;;22.00;21.00;;;;;26.40;52.53;100603.78;146599;642;46017;-69
2022/07/25 03:33:10;;;;;;;;;21.75;20.75;;;;;26.35;53.22;100616.25;146601;586;46020;-69
2022/07/25 03:36:02;;;;;;;;;24.25;20.50;;;;;26.32;52.19;100610.09;146601;686;46016;-69
2022/07/25 03:38:55;;;;;;;;;22.75;21.25;;;;;26.28;51.98;100606.63;146603;757;46011;-69
2022/07/25 03:41:47;;;;;;;;;21.75;19.50;;;;;26.27;51.43;100608.41;146601;593;46016;-70
2022/07/25 03:44:39;;;;;;;;;21.50;20.00;;;;;26.27;50.45;100613.72;146605;628;46020;-69
2022/07/25 03:47:31;;;;;;;;;19.75;19.00;;;;;26.29;50.71;100616.34;146598;608;46012;-69
2022/07/25 03:50:23;;;;;;;;;22.75;20.25;;;;;26.32;50.74;100621.59;146600;604;46010;-68
2022/07/25 03:53:15;;;;;;;;;20.25;19.00;;;;;25.24;50.46;100443.44;146600;587;46013;-69
2022/07/25 03:56:08;;;;;;;;;19.00;19.00;;;;;26.34;49.87;100640.22;146601;585;46010;-69
2022/07/25 03:59:00;;;;;;;;;21.25;21.25;;;;;26.37;50.16;100635.72;146601;631;46016;-69
2022/07/25 04:01:53;;;;;;;;;22.25;21.50;;;;;26.45;50.18;100638.28;146602;596;46020;-69
2022/07/25 04:04:45;;;;;;;;;26.00;22.50;;;;;26.52;50.45;100644.41;146626;565;46014;-69
2022/07/25 04:07:38;;;;;;;;;23.75;21.50;;;;;26.52;50.42;100650.59;146626;567;45021;-69
2022/07/25 04:10:30;;;;;;;;;26.00;25.00;;;;;26.52;50.83;100647.06;146627;576;45014;-69
2022/07/25 04:13:22;;;;;;;;;24.75;21.00;;;;;26.49;51.51;100651.53;146627;608;45020;-69
2022/07/25 04:16:15;;;;;;;;;23.25;21.75;;;;;26.47;52.34;100649.75;146626;569;45017;-68
2022/07/25 04:19:07;;;;;;;;;22.75;21.00;;;;;26.38;51.96;100655.22;146628;632;45010;-69
2022/07/25 04:22:00;;;;;;;;;22.00;22.00;;;;;26.32;52.82;100647.31;146626;718;45016;-69
2022/07/25 04:24:52;;;;;;;;;23.75;19.25;;;;;26.26;52.90;100651.84;146627;609;46010;-69
2022/07/25 04:27:44;;;;;;;;;23.50;22.75;;;;;26.24;52.89;100644.78;146626;610;45012;-69
2022/07/25 04:30:36;;;;;;;;;23.75;23.25;;;;;26.31;52.54;100650.87;146627;570;45010;-68
2022/07/25 04:33:28;;;;;;;;;23.50;22.50;;;;;26.37;53.25;100651.69;146627;639;45014;-69
2022/07/25 04:36:21;;;;;;;;;23.00;22.25;;;;;26.47;52.08;100657.72;146623;563;46010;-69
2022/07/25 04:39:12;;;;;;;;;22.25;20.50;;;;;26.61;52.49;100652.25;146627;604;45012;-69
2022/07/25 04:42:05;;;;;;;;;23.75;20.00;;;;;26.79;52.47;100659.94;146629;616;45020;-69
2022/07/25 04:44:57;;;;;;;;;23.00;22.00;;;;;26.95;52.09;100652.56;146628;599;45013;-69
2022/07/25 04:47:49;;;;;;;;;20.50;19.00;;;;;27.13;52.03;100651.34;146626;592;45021;-69
2022/07/25 04:50:41;;;;;;;;;24.25;22.00;;;;;27.36;51.74;100656.28;146623;615;45016;-70
2022/07/25 04:53:33;;;;;;;;;22.00;21.25;;;;;27.59;51.01;100654.03;146627;638;45010;-69
2022/07/25 04:56:25;;;;;;;;;20.75;20.00;;;;;27.85;51.26;100657.97;146627;590;45012;-69
2022/07/25 04:59:17;;;;;;;;;23.50;22.50;;;;;28.13;51.77;100665.38;146628;564;46010;-70
2022/07/25 05:02:09;;;;;;;;;23.00;22.50;;;;;28.40;51.54;100669.22;146623;600;45012;-70
2022/07/25 05:05:01;;;;;;;;;23.75;22.00;;;;;28.64;50.15;100674.00;146629;596;45030;-70
2022/07/25 05:07:54;;;;;;;;;21.75;21.50;;;;;28.88;50.55;100683.22;146629;581;45013;-70
2022/07/25 05:10:46;;;;;;;;;21.75;21.00;;;;;29.11;49.50;100682.66;146628;611;45020;-70
2022/07/25 05:13:38;;;;;;;;;24.75;20.50;;;;;29.31;48.56;100690.12;146630;585;45016;-71
2022/07/25 05:16:31;;;;;;;;;21.00;20.25;;;;;29.50;48.14;100687.81;146629;585;45914;-69
2022/07/25 05:19:23;;;;;;;;;21.75;20.25;;;;;29.64;48.12;100696.38;146628;619;45016;-71
2022/07/25 05:22:15;;;;;;;;;29.25;24.25;;;;;29.71;48.49;100693.53;146630;576;45011;-71
2022/07/25 05:25:12;;;;;;;;;23.25;22.00;;;;;29.79;48.44;100697.75;146626;585;45014;-71
2022/07/25 05:28:17;;;;;;;;;22.00;18.50;;;;;29.88;48.04;100701.97;146627;604;45020;-70
2022/07/25 05:31:09;;;;;;;;;22.50;21.25;;;;;29.98;48.76;100707.91;146629;564;45029;-70
2022/07/25 05:34:09;;;;;;;;;21.50;19.50;;;;;30.04;46.82;100710.41;146629;599;45026;-70
2022/07/25 05:37:01;;;;;;;;;19.75;19.25;;;;;30.14;47.98;100709.19;146626;592;45016;-71
2022/07/25 05:39:54;;;;;;;;;20.50;17.75;;;;;30.32;48.04;100706.00;146631;588;45010;-71
2022/07/25 05:42:45;;;;;;;;;21.00;19.75;;;;;30.49;47.43;100702.78;146628;607;45012;-70
2022/07/25 05:45:38;;;;;;;;;17.50;15.75;;;;;30.62;47.33;100705.94;146626;647;46010;-69
2022/07/25 05:48:30;;;;;;;;;22.50;21.00;;;;;30.70;47.59;100709.25;146627;571;45016;-69
2022/07/25 05:51:22;;;;;;;;;20.00;20.00;;;;;30.74;47.90;100710.03;146628;608;46010;-71
2022/07/25 05:54:15;;;;;;;;;20.50;19.25;;;;;30.81;48.27;100714.28;146625;708;45016;-69
2022/07/25 05:57:07;;;;;;;;;19.25;17.00;;;;;30.92;47.37;100712.16;146631;572;45030;-70
2022/07/25 05:59:59;;;;;;;;;21.00;21.00;;;;;31.07;47.67;100708.09;146625;756;45016;-69
2022/07/25 06:02:51;;;;;;;;;19.50;19.00;;;;;31.20;46.03;100717.44;146621;700;46012;-69
2022/07/25 06:05:44;;;;;;;;;16.00;16.00;;;;;31.33;46.42;100717.00;146599;571;47014;-69
2022/07/25 06:08:36;;;;;;;;;19.50;18.25;;;;;31.50;46.64;100722.69;146602;588;46010;-69
2022/07/25 06:11:29;;;;;;;;;18.00;18.00;;;;;31.62;45.66;100718.69;146598;570;46012;-69
2022/07/25 06:14:22;;;;;;;;;24.75;23.50;;;;;31.67;46.21;100719.41;146601;587;46031;-69
2022/07/25 06:17:14;;;;;;;;;22.75;21.50;;;;;31.68;46.04;100718.47;146600;704;46016;-69
2022/07/25 06:20:06;;;;;;;;;20.75;19.25;;;;;31.63;45.49;100710.59;146603;594;45044;-70
2022/07/25 06:22:59;;;;;;;;;23.00;21.50;;;;;31.55;45.50;100715.34;146600;591;46016;-69
2022/07/25 06:25:51;;;;;;;;;21.00;19.75;;;;;31.54;44.57;100720.78;146603;623;46010;-69
2022/07/25 06:28:43;;;;;;;;;22.75;20.50;;;;;31.57;44.91;100712.63;146598;622;46918;-70
2022/07/25 06:31:36;;;;;;;;;21.00;19.00;;;;;31.66;47.31;100713.16;146604;579;46020;-71
2022/07/25 06:34:28;;;;;;;;;20.25;20.25;;;;;31.70;47.31;100708.56;146602;600;45017;-70
2022/07/25 06:37:20;;;;;;;;;21.50;20.50;;;;;31.63;47.39;100705.25;146603;590;46010;-70
2022/07/25 06:40:13;;;;;;;;;21.75;20.50;;;;;31.58;47.56;100709.00;146599;583;46016;-70
2022/07/25 06:43:05;;;;;;;;;23.75;21.50;;;;;31.53;48.03;100719.91;146603;597;46011;-69
2022/07/25 06:45:57;;;;;;;;;24.75;21.50;;;;;31.43;48.47;100710.44;146598;631;46012;-70
2022/07/25 06:48:50;;;;;;;;;21.00;20.50;;;;;31.32;49.15;100716.16;146604;597;46020;-70
2022/07/25 06:51:42;;;;;;;;;23.50;23.00;;;;;31.28;49.25;100709.16;146597;601;46918;-70
2022/07/25 06:54:34;;;;;;;;;21.75;21.75;;;;;31.22;48.79;100707.56;146602;586;46020;-69
2022/07/25 06:57:26;;;;;;;;;21.75;20.00;;;;;31.12;48.42;100705.22;146601;602;46031;-69
2022/07/25 07:00:18;;;;;;;;;21.50;18.00;;;;;31.02;46.71;100704.66;146603;563;46020;-69
2022/07/25 07:03:11;;;;;;;;;21.75;20.50;;;;;30.96;48.21;100705.75;146599;650;46014;-70
2022/07/25 07:06:03;;;;;;;;;23.25;21.00;;;;;31.08;47.12;100698.25;146603;662;46010;-70
2022/07/25 07:08:55;;;;;;;;;21.25;20.00;;;;;31.22;45.81;100696.84;146601;569;46016;-70
2022/07/25 07:11:48;;;;;;;;;19.25;18.25;;;;;31.42;45.88;100698.84;146600;569;46011;-70
2022/07/25 07:14:42;;;;;;;;;21.25;20.25;;;;;31.68;44.92;100695.25;146598;602;46016;-70
2022/07/25 07:17:34;;;;;;;;;17.50;17.50;;;;;32.00;44.04;100705.72;146602;593;46010;-71
2022/07/25 07:20:26;;;;;;;;;21.50;20.00;;;;;32.19;43.41;100702.25;146598;701;46036;-68
2022/07/25 07:23:19;;;;;;;;;23.25;20.25;;;;;32.24;43.15;100698.50;146602;569;46010;-70
2022/07/25 07:26:11;;;;;;;;;19.50;19.00;;;;;32.18;43.51;100695.16;146600;574;46012;-69
2022/07/25 07:29:03;;;;;;;;;18.75;17.25;;;;;32.22;43.35;100690.53;146602;690;46020;-69
2022/07/25 07:31:55;;;;;;;;;22.50;21.75;;;;;32.30;43.22;100695.59;146599;636;46016;-70
2022/07/25 07:35:08;;;;;;;;;21.75;20.50;;;;;32.30;42.67;100695.59;146599;595;47010;-69
2022/07/25 07:38:00;;;;;;;;;17.75;16.75;;;;;32.29;42.34;100701.91;146600;683;46012;-68
2022/07/25 07:40:52;;;;;;;;;20.25;19.25;;;;;32.11;43.55;100693.63;146603;580;47011;-71
2022/07/25 07:43:45;;;;;;;;;19.75;18.00;;;;;31.92;42.97;100695.28;146601;561;46016;-69
2022/07/25 07:47:13;;;;;;;;;19.00;18.50;;;;;31.67;43.96;100685.44;146602;620;46020;-69
2022/07/25 07:50:05;;;;;;;;;22.75;21.75;;;;;31.49;44.55;100683.41;146599;600;46017;-69
2022/07/25 07:52:59;;;;;;;;;20.00;17.50;;;;;31.52;43.81;100677.94;146597;618;46020;-69
2022/07/25 07:55:54;;;;;;;;;21.50;19.75;;;;;31.61;43.32;100685.66;146599;608;46017;-69
2022/07/25 07:58:49;;;;;;;;;20.00;19.25;;;;;30.92;43.45;100582.75;146604;579;46010;-69
2022/07/25 08:01:41;;;;;;;;;17.75;17.00;;;;;31.76;45.06;100711.03;146600;564;46012;-69
2022/07/25 08:04:34;;;;;;;;;22.00;20.00;;;;;31.74;46.09;100704.84;146602;608;46010;-69
2022/07/25 08:07:26;;;;;;;;;20.50;19.50;;;;;31.71;46.15;100707.63;146598;748;46012;-69
2022/07/25 08:10:20;;;;;;;;;20.75;18.50;;;;;31.76;45.99;100713.72;146600;594;46010;-71
2022/07/25 08:13:28;;;;;;;;;21.50;19.75;;;;;31.95;44.89;100716.59;146601;614;46016;-68
2022/07/25 08:16:51;;;;;;;;;19.25;17.50;;;;;32.23;45.03;100713.75;146602;646;46010;-69
2022/07/25 08:19:43;;;;;;;;;22.50;22.50;;;;;32.49;44.63;100710.06;146599;609;46017;-69
2022/07/25 08:22:50;;;;;;;;;22.50;21.50;;;;;32.80;44.20;100708.81;146603;564;46020;-69
2022/07/25 08:25:43;;;;;;;;;23.25;22.50;;;;;33.05;42.67;100717.63;146598;580;46016;-67
2022/07/25 08:28:35;;;;;;;;;24.50;21.75;;;;;32.39;42.74;100569.97;146602;703;46020;-75
2022/07/25 08:31:27;;;;;;;;;24.50;21.50;;;;;33.44;40.97;100716.00;146600;646;46012;-67
2022/07/25 08:34:21;;;;;;;;;21.50;20.00;;;;;33.55;38.62;100703.88;146602;591;46021;-68
2022/07/25 08:37:14;;;;;;;;;23.50;21.50;;;;;33.67;40.46;100712.31;146600;573;46016;-68
2022/07/25 08:40:07;;;;;;;;;26.50;24.50;;;;;33.70;39.28;100714.84;146602;580;46011;-69
2022/07/25 08:42:59;;;;;;;;;21.00;19.00;;;;;33.72;40.29;100710.28;146598;634;47012;-69
2022/07/25 08:45:56;;;;;;;;;23.25;23.00;;;;;33.70;39.61;100710.34;146603;602;46010;-68
2022/07/25 08:48:49;;;;;;;;;22.50;20.50;;;;;33.73;40.54;100701.25;146602;609;45918;-69
2022/07/25 08:51:49;;;;;;;;;21.50;20.75;;;;;33.82;37.95;100705.34;146601;668;46020;-69
2022/07/25 08:55:20;;;;;;;;;24.50;23.75;;;;;33.89;39.40;100706.81;146598;609;46017;-69
2022/07/25 08:58:26;;;;;;;;;22.00;21.00;;;;;33.98;37.20;100706.38;146602;602;46020;-69
2022/07/25 09:01:18;;;;;;;;;23.00;22.25;;;;;34.07;36.65;100708.69;146601;590;46016;-71
2022/07/25 09:04:14;;;;;;;;;23.00;22.00;;;;;34.15;36.91;100698.44;146606;616;46010;-73
2022/07/25 09:07:06;;;;;;;;;20.50;20.50;;;;;34.19;35.93;100691.09;146598;627;46012;-73
2022/07/25 09:09:59;;;;;;;;;21.00;20.00;;;;;34.29;35.85;100699.59;146601;583;46021;-74
2022/07/25 09:13:06;;;;;;;;;23.50;18.75;;;;;34.34;35.36;100692.19;146601;564;46031;-73
2022/07/25 09:15:59;;;;;;;;;20.00;19.00;;;;;34.27;34.34;100686.22;146601;735;46029;-74
2022/07/25 09:18:51;;;;;;;;;22.25;21.00;;;;;34.25;35.64;100693.50;146599;580;46016;-73
2022/07/25 09:21:46;;;;;;;;;23.00;22.75;;;;;34.15;37.06;100692.19;146603;630;46020;-68
2022/07/25 09:24:38;;;;;;;;;22.50;21.50;;;;;33.23;37.49;100544.00;146598;575;46014;-73
2022/07/25 09:27:36;;;;;;;;;23.75;22.75;;;;;34.12;33.27;100686.97;146599;586;46020;-71
2022/07/25 09:30:28;;;;;;;;;22.75;22.00;;;;;34.16;34.52;100688.56;146599;603;46034;-71
2022/07/25 09:33:20;;;;;;;;;28.75;26.00;;;;;34.21;35.63;100686.53;146604;615;45043;-70
2022/07/25 09:36:16;;;;;;;;;20.75;20.75;;;;;34.33;35.14;100685.03;146598;565;46035;-70
2022/07/25 09:39:08;;;;;;;;;20.50;20.50;;;;;34.46;33.96;100673.63;146601;607;46021;-70
2022/07/25 09:42:00;;;;;;;;;23.75;22.75;;;;;34.60;34.92;100678.34;146598;566;46016;-72
2022/07/25 09:45:11;;;;;;;;;23.00;22.75;;;;;34.64;33.78;100673.66;146601;636;46010;-72
2022/07/25 09:48:06;;;;;;;;;24.25;23.25;;;;;34.75;36.22;100674.03;146601;627;46013;-73
2022/07/25 09:50:58;;;;;;;;;23.50;21.00;;;;;34.91;35.32;100671.41;146601;584;46033;-72
2022/07/25 09:53:50;;;;;;;;;27.00;24.25;;;;;35.02;34.67;100670.84;146600;599;46017;-70
2022/07/25 09:56:42;;;;;;;;;24.75;23.00;;;;;35.06;32.83;100664.41;146604;645;45021;-71
2022/07/25 09:59:36;;;;;;;;;25.25;23.75;;;;;35.14;34.83;100662.16;146600;595;46014;-70
2022/07/25 10:03:12;;;;;;;;;21.25;20.75;;;;;34.24;33.92;100498.00;146603;592;46021;-71
2022/07/25 10:06:28;;;;;;;;;22.25;22.25;;;;;35.27;35.86;100657.03;146600;592;47014;-71
2022/07/25 10:09:21;;;;;;;;;24.00;23.00;;;;;35.34;35.33;100653.06;146601;570;46010;-71
2022/07/25 10:12:14;;;;;;;;;24.00;22.75;;;;;35.42;35.20;100653.50;146599;586;46012;-71
2022/07/25 10:15:15;;;;;;;;;23.75;22.75;;;;;35.49;35.28;100649.53;146605;609;45020;-71
2022/07/25 10:18:07;;;;;;;;;23.50;20.75;;;;;35.51;34.79;100647.59;146598;633;46916;-71
2022/07/25 10:21:16;;;;;;;;;25.50;23.00;;;;;35.47;35.87;100646.03;146602;578;46020;-71
2022/07/25 10:24:12;;;;;;;;;25.75;22.25;;;;;34.59;34.12;100495.34;146598;566;46014;-71
2022/07/25 10:27:14;;;;;;;;;21.00;20.00;;;;;35.43;35.08;100630.13;146602;709;46010;-72
2022/07/25 10:30:22;;;;;;;;;21.75;21.75;;;;;35.43;34.38;100627.44;146600;570;46017;-71
2022/07/25 10:33:20;;;;;;;;;23.00;21.25;;;;;35.46;35.35;100624.56;146603;651;46020;-71
2022/07/25 10:36:13;;;;;;;;;22.00;21.50;;;;;35.53;34.84;100628.66;146601;611;46014;-71
2022/07/25 10:39:05;;;;;;;;;24.50;21.25;;;;;35.59;32.86;100628.38;146601;641;46021;-71
2022/07/25 10:42:03;;;;;;;;;22.00;20.75;;;;;35.48;33.49;100623.50;146596;610;47915;-70
2022/07/25 10:44:59;;;;;;;;;21.00;21.00;;;;;35.28;33.50;100618.34;146599;618;46020;-67
2022/07/25 10:47:58;;;;;;;;;21.50;19.75;;;;;35.19;35.38;100608.91;146599;589;46016;-68
2022/07/25 10:51:02;;;;;;;;;22.75;21.00;;;;;35.18;32.26;100609.87;146601;569;46020;-68
2022/07/25 10:53:54;;;;;;;;;23.00;22.50;;;;;35.28;34.62;100610.25;146598;639;46017;-67
2022/07/25 10:56:59;;;;;;;;;24.75;23.75;;;;;35.45;34.93;100602.09;146602;563;47010;-71
2022/07/25 10:59:51;;;;;;;;;21.50;20.75;;;;;35.63;32.39;100594.88;146601;697;46016;-72
2022/07/25 11:02:45;;;;;;;;;25.25;21.75;;;;;35.61;30.19;100599.50;146604;581;46010;-70
2022/07/25 11:05:47;;;;;;;;;22.50;22.50;;;;;35.56;33.37;100593.47;146600;688;46014;-70
2022/07/25 11:08:40;;;;;;;;;22.50;20.50;;;;;35.53;31.95;100597.22;146598;614;46027;-68
2022/07/25 11:11:47;;;;;;;;;20.25;19.50;;;;;35.56;34.45;100588.09;146600;571;46016;-69
2022/07/25 11:14:46;;;;;;;;;19.50;18.50;;;;;35.60;33.03;100585.13;146603;571;46021;-70
2022/07/25 11:17:38;;;;;;;;;22.75;22.00;;;;;35.56;33.05;100583.56;146599;604;46017;-69
2022/07/25 11:20:30;;;;;;;;;25.00;24.00;;;;;35.62;33.58;100580.53;146604;631;47010;-70
2022/07/25 11:23:25;;;;;;;;;24.75;23.75;;;;;35.66;32.68;100580.34;146602;564;46016;-69
2022/07/25 11:26:17;;;;;;;;;24.00;22.00;;;;;35.68;32.37;100563.13;146603;563;46010;-71
2022/07/25 11:29:09;;;;;;;;;22.75;21.25;;;;;35.70;33.23;100572.00;146600;686;46016;-69
2022/07/25 11:32:05;;;;;;;;;21.50;18.50;;;;;35.75;32.59;100566.34;146602;593;46010;-72
2022/07/25 11:34:57;;;;;;;;;22.25;22.25;;;;;34.97;31.92;100427.75;146599;581;46016;-72
2022/07/25 11:37:51;;;;;;;;;19.00;18.25;;;;;35.87;33.02;100571.06;146599;574;46011;-73
2022/07/25 11:40:47;;;;;;;;;24.25;23.50;;;;;35.97;31.99;100571.41;146600;571;45041;-72
2022/07/25 11:43:39;;;;;;;;;25.25;22.25;;;;;35.98;30.88;100563.22;146602;597;46010;-70
2022/07/25 11:46:30;;;;;;;;;23.50;23.00;;;;;35.91;31.95;100561.81;146598;646;46014;-70
2022/07/25 11:49:23;;;;;;;;;19.25;17.75;;;;;35.82;32.65;100563.22;146602;593;46010;-69
2022/07/25 11:52:35;;;;;;;;;22.25;21.50;;;;;35.89;33.97;100558.34;146598;613;46035;-69
2022/07/25 11:55:32;;;;;;;;;21.75;20.00;;;;;36.04;33.75;100560.19;146603;566;46020;-73
2022/07/25 11:58:27;;;;;;;;;18.50;18.50;;;;;36.11;34.37;100560.72;146601;620;46012;-77
2022/07/25 12:01:19;;;;;;;;;20.75;20.75;;;;;36.14;34.74;100563.25;146602;601;47010;-70
2022/07/25 12:04:21;;;;;;;;;21.50;21.00;;;;;36.15;33.29;100556.00;146600;597;46012;-74
2022/07/25 12:07:13;;;;;;;;;24.75;23.00;;;;;36.11;33.62;100552.63;146600;581;46020;-73
2022/07/25 12:10:06;;;;;;;;;20.50;19.75;;;;;36.11;33.43;100544.53;146598;655;46016;-77
2022/07/25 12:13:03;;;;;;;;;25.25;22.25;;;;;36.16;32.68;100544.25;146602;721;46010;-73
2022/07/25 12:15:55;;;;;;;;;16.50;16.25;;;;;36.17;33.16;100541.47;146600;737;46032;-71
2022/07/25 12:18:48;;;;;;;;;24.75;22.25;;;;;36.13;33.30;100539.03;146602;585;46010;-69
2022/07/25 12:21:40;;;;;;;;;25.00;23.25;;;;;36.13;33.42;100536.31;146599;619;46034;-72
2022/07/25 12:24:32;;;;;;;;;20.25;20.25;;;;;36.16;33.24;100531.63;146604;599;46020;-74
2022/07/25 12:27:24;;;;;;;;;20.75;20.50;;;;;36.11;33.25;100517.53;146600;597;46014;-72
2022/07/25 12:30:17;;;;;;;;;24.75;22.50;;;;;35.37;33.98;100405.72;146604;601;46011;-74
2022/07/25 12:33:10;;;;;;;;;25.00;24.25;;;;;36.11;32.68;100524.75;146599;571;46016;-76
2022/07/25 12:36:03;;;;;;;;;24.50;23.25;;;;;36.04;32.62;100516.13;146601;645;45021;-75
2022/07/25 12:38:55;;;;;;;;;25.00;24.00;;;;;36.03;32.76;100517.09;146599;569;46916;-76
2022/07/25 12:41:48;;;;;;;;;24.75;24.75;;;;;36.02;32.75;100510.84;146603;612;46010;-73
2022/07/25 12:44:40;;;;;;;;;21.75;20.00;;;;;35.97;33.28;100504.81;146600;608;46014;-74
2022/07/25 12:47:32;;;;;;;;;21.50;20.25;;;;;35.92;32.81;100515.00;146600;602;46010;-75
2022/07/25 12:50:24;;;;;;;;;26.50;25.50;;;;;35.81;33.81;100510.22;146599;566;46016;-74
2022/07/25 12:53:16;;;;;;;;;27.00;23.75;;;;;35.69;33.51;100500.12;146602;569;46010;-72
2022/07/25 12:56:08;;;;;;;;;22.00;21.25;;;;;35.57;34.91;100496.28;146600;605;46016;-73
2022/07/25 12:59:01;;;;;;;;;26.50;25.25;;;;;35.48;34.80;100493.22;146602;569;46010;-72
2022/07/25 13:01:53;;;;;;;;;25.00;21.25;;;;;35.34;33.91;100497.56;146600;565;46016;-74
2022/07/25 13:04:45;;;;;;;;;23.00;22.75;;;;;35.11;35.38;100493.44;146601;765;46020;-72
2022/07/25 13:07:37;;;;;;;;;24.00;24.00;;;;;34.97;36.98;100490.59;146598;595;46013;-68
2022/07/25 13:10:30;;;;;;;;;24.00;23.25;;;;;34.90;36.32;100484.66;146602;569;46020;-75
2022/07/25 13:13:22;;;;;;;;;22.50;20.75;;;;;34.86;37.25;100480.41;146599;591;46016;-72
2022/07/25 13:16:14;;;;;;;;;23.50;22.50;;;;;34.84;37.84;100482.31;146602;682;46020;-75
2022/07/25 13:19:06;;;;;;;;;24.25;24.25;;;;;34.76;39.22;100479.12;146599;609;46016;-71
2022/07/25 13:21:59;;;;;;;;;23.25;22.25;;;;;34.57;39.91;100483.75;146602;588;46011;-71
2022/07/25 13:24:51;;;;;;;;;26.75;24.50;;;;;34.36;38.91;100478.50;146598;569;46016;-75